Airfield :
LOGIN :

Register | Disclaimer

   EN    FR    IT 

 










Legend :    VFR   Marginal VFR   IFR   Intensive IFR   Very Intensive IFR
Visi :
Ceiling :
>= 8 km
>= 3000ft
5 to 8 km
1000 to 3000 ft
1500m to 5 km
500 to 1000 ft
800 to 1500m
200 to 500 ft
< 800m
< 200 ft
Symbols :   Thunderstorms  Fog  Heavy snow  Heavy precipitations  Wind > 20 kt
SIGMETs :     Misc.  Thunderstorms  Icing  Turbulence  Mountain Waves  Volcanic Ashes







- Airport Elevation : 218 ft
- IATA code : LBG
- Download approach charts


LFPB - Paris / Le Bourget

CURRENT METAR :
  • 152030Z AUTO 02003KT CAVOK 06/02 Q1027 NOSIG

EXPIRED METARs :
  • 152000Z AUTO VRB02KT CAVOK 07/02 Q1027 NOSIG
  • 151930Z AUTO 02003KT CAVOK 07/02 Q1027 NOSIG
  • 151900Z AUTO 05002KT CAVOK 09/01 Q1027 NOSIG
  • 151830Z AUTO 09002KT CAVOK 09/01 Q1027 NOSIG
  • 151800Z AUTO 13003KT CAVOK 11/00 Q1027 NOSIG

TAF TAF LFPB
Valid from the 15 at 18:00 until the 16 at 18:00 UTC


151700Z 1518/1618 14005KT CAVOK
PROB30
TEMPO 1600/1601 4000 BR
BECMG 1602/1605 3000 BR
PROB30
TEMPO 1602/1605 0600 BCFG
TEMPO 1605/1609 0500 FG VV///
BECMG 1609/1611 7000 NSW NSC
ATIS : +33 1 48 62 43 92
No reported NOTAMs for that airfield.



MET'MAP, your aeronautical weather chart ! - Copyright ORBIFLY December 2007 - Disclaimer

ORBIFLY MET'MAP TEAM :

Programming & Development : Alexandra Zaïnal
Concept & Development : Baudouin d'Aumeries
Co-Development & Prog : Marc-Olivier Méhu
Technical & hardware support : Manuel Goepfert

Contact : metmap@orbifly.com




SOURCES & CREDITS :

   NOAA